Time;durP1;ratioP1;P1;durP2;ratioP2;P2;SDS_P1;SDS_P2;PMS_P1;PMS_P2;Temp;Humidity;BMP_temperature;BMP_pressure;BME280_temperature;BME280_humidity;BME280_pressure;Samples;Min_cycle;Max_cycle;Signal;HPM_P1;HPM_P2
2021/12/22 00:03:09;;;;;;;19.77;10.32;;;-3.70;99.90;;;;;;7250167;32;20217;-76
2021/12/22 00:07:12;;;;;;;15.32;7.93;;;-3.70;99.90;;;;;;7258261;32;20101;-75
2021/12/22 00:11:14;;;;;;;14.23;6.70;;;-3.70;99.90;;;;;;7243278;32;20239;-76
2021/12/22 00:15:17;;;;;;;12.77;6.22;;;-3.60;99.90;;;;;;7254653;32;21916;-76
2021/12/22 00:19:18;;;;;;;9.25;5.20;;;-3.70;99.90;;;;;;7257521;32;20176;-76
2021/12/22 00:23:20;;;;;;;9.95;5.22;;;-3.70;99.90;;;;;;7254461;32;20178;-76
2021/12/22 00:27:22;;;;;;;9.38;5.00;;;-3.80;99.90;;;;;;7260942;32;20175;-76
2021/12/22 00:31:24;;;;;;;9.85;5.57;;;-3.80;99.90;;;;;;7225341;32;20776;-76
2021/12/22 00:35:29;;;;;;;12.25;5.37;;;-3.90;99.90;;;;;;7240785;32;20207;-76
2021/12/22 00:39:31;;;;;;;9.43;4.55;;;-3.90;99.90;;;;;;7245957;32;20334;-76
2021/12/22 00:43:33;;;;;;;11.05;4.97;;;-3.80;99.90;;;;;;7260582;32;20105;-77
2021/12/22 00:47:36;;;;;;;11.20;5.20;;;-3.90;99.90;;;;;;7244469;32;20117;-76
2021/12/22 00:51:38;;;;;;;9.23;4.82;;;-3.90;99.90;;;;;;7245166;32;20177;-76
2021/12/22 00:55:40;;;;;;;9.35;4.65;;;-3.90;99.90;;;;;;7242113;32;20158;-75
2021/12/22 00:59:42;;;;;;;9.93;4.97;;;-3.90;99.90;;;;;;7249999;32;20161;-75
2021/12/22 01:03:44;;;;;;;11.52;5.40;;;-3.90;99.90;;;;;;7233394;32;20140;-75
2021/12/22 01:07:48;;;;;;;12.63;5.43;;;-3.80;99.90;;;;;;7243338;32;20233;-76
2021/12/22 01:11:51;;;;;;;14.73;6.03;;;-3.80;99.90;;;;;;7244435;32;20246;-77
2021/12/22 01:15:53;;;;;;;11.05;6.22;;;-3.80;99.90;;;;;;7232512;32;20591;-77
2021/12/22 01:20:04;;;;;;;10.90;4.80;;;-3.80;99.90;;;;;;7245376;32;20179;-77
2021/12/22 01:24:28;;;;;;;11.77;5.47;;;-3.80;99.90;;;;;;7257488;32;20128;-77
2021/12/22 01:28:30;;;;;;;10.32;5.00;;;-3.70;99.90;;;;;;7243182;32;20211;-77
2021/12/22 01:32:32;;;;;;;10.27;4.78;;;-3.80;99.90;;;;;;7245295;32;20522;-77
2021/12/22 01:36:33;;;;;;;11.00;4.80;;;-3.70;99.90;;;;;;7240843;32;20109;-76
2021/12/22 01:40:40;;;;;;;10.40;4.03;;;-3.80;99.90;;;;;;7246782;32;20201;-77
2021/12/22 01:49:50;;;;;;;11.02;4.50;;;-3.70;99.90;;;;;;7243036;32;20112;-77
2021/12/22 01:53:59;;;;;;;9.88;4.10;;;-3.70;99.90;;;;;;7256527;32;20104;-77
2021/12/22 01:58:05;;;;;;;8.57;4.12;;;-3.80;99.90;;;;;;7258121;32;20819;-77
2021/12/22 02:02:09;;;;;;;7.95;4.87;;;-3.80;99.90;;;;;;7230094;32;20211;-76
2021/12/22 02:06:11;;;;;;;10.13;5.35;;;-3.80;99.90;;;;;;7235909;32;20186;-76
2021/12/22 02:14:18;;;;;;;7.62;4.25;;;-3.90;99.90;;;;;;7258213;32;20117;-77
2021/12/22 02:18:21;;;;;;;6.35;3.97;;;-3.90;99.90;;;;;;7243546;32;20532;-77
2021/12/22 02:22:25;;;;;;;10.13;4.53;;;-3.90;99.90;;;;;;7229669;32;20108;-77
2021/12/22 02:26:41;;;;;;;7.50;3.75;;;-3.90;99.90;;;;;;7230502;32;20191;-78
2021/12/22 02:30:44;;;;;;;7.53;3.87;;;-3.90;99.90;;;;;;7246960;32;20100;-77
2021/12/22 02:34:48;;;;;;;8.43;4.15;;;-4.00;99.90;;;;;;7241680;32;20349;-78
2021/12/22 02:38:53;;;;;;;7.30;3.80;;;-4.00;99.90;;;;;;7239191;32;20625;-78
2021/12/22 02:43:04;;;;;;;9.23;4.20;;;-4.00;99.90;;;;;;7247601;32;20266;-78
2021/12/22 02:47:21;;;;;;;7.18;3.00;;;-4.10;99.90;;;;;;7229008;32;20121;-77
2021/12/22 02:51:27;;;;;;;7.50;3.37;;;-4.10;99.90;;;;;;7242659;32;20230;-78
2021/12/22 02:55:41;;;;;;;9.52;3.75;;;-4.10;99.90;;;;;;7233621;32;20100;-77
2021/12/22 03:00:03;;;;;;;8.93;3.50;;;-4.10;99.90;;;;;;7256921;32;20124;-78
2021/12/22 03:04:11;;;;;;;5.97;3.15;;;-4.10;99.90;;;;;;7251914;32;20362;-78
2021/12/22 03:08:13;;;;;;;8.63;3.53;;;-4.20;99.90;;;;;;7214868;32;20108;-77
2021/12/22 03:12:15;;;;;;;8.77;3.22;;;-4.20;99.90;;;;;;7238995;32;20121;-77
2021/12/22 03:16:18;;;;;;;6.72;3.22;;;-4.20;99.90;;;;;;7227081;32;20133;-78
2021/12/22 03:20:20;;;;;;;7.12;3.08;;;-4.10;99.90;;;;;;7250375;32;20139;-78
2021/12/22 03:24:22;;;;;;;9.27;3.15;;;-4.20;99.90;;;;;;7240728;32;21167;-78
2021/12/22 03:28:24;;;;;;;7.82;3.12;;;-4.20;99.90;;;;;;7239896;32;20108;-78
2021/12/22 03:32:26;;;;;;;5.82;2.87;;;-4.20;99.90;;;;;;7256504;32;20250;-77
2021/12/22 03:36:28;;;;;;;4.28;2.50;;;-4.30;99.90;;;;;;7246469;32;20134;-78
2021/12/22 03:40:30;;;;;;;6.12;2.42;;;-4.20;99.90;;;;;;7232280;32;20172;-78
2021/12/22 03:44:32;;;;;;;8.80;3.15;;;-4.20;99.90;;;;;;7232498;32;20112;-77
2021/12/22 03:48:34;;;;;;;6.95;2.65;;;-4.20;99.90;;;;;;7258800;32;20261;-78
2021/12/22 03:52:36;;;;;;;6.90;2.80;;;-4.10;99.90;;;;;;7244456;32;20146;-77
2021/12/22 03:56:38;;;;;;;6.07;2.97;;;-4.10;99.90;;;;;;7259597;32;20189;-77
2021/12/22 04:00:43;;;;;;;5.57;2.70;;;-4.00;99.90;;;;;;7234233;32;20134;-78
2021/12/22 04:04:47;;;;;;;6.22;2.53;;;-3.80;99.90;;;;;;7233455;32;20112;-78
2021/12/22 04:08:48;;;;;;;7.78;2.45;;;-3.60;99.90;;;;;;7245555;32;20758;-75
2021/12/22 04:13:00;;;;;;;5.57;2.12;;;-3.50;99.90;;;;;;7256735;32;20199;-77
2021/12/22 04:17:02;;;;;;;6.70;2.22;;;-3.30;99.90;;;;;;7245982;32;20192;-77
2021/12/22 04:21:04;;;;;;;6.40;2.20;;;-3.20;99.90;;;;;;7242754;32;20109;-76
2021/12/22 04:25:08;;;;;;;6.97;2.42;;;-3.20;99.90;;;;;;7267636;32;20195;-76
2021/12/22 04:29:11;;;;;;;5.45;2.20;;;-3.00;99.90;;;;;;7242107;32;20109;-76
2021/12/22 04:33:14;;;;;;;4.65;2.45;;;-3.10;99.90;;;;;;7241585;32;20585;-76
2021/12/22 04:37:16;;;;;;;4.97;2.75;;;-3.20;99.90;;;;;;7245300;32;20216;-76
2021/12/22 04:41:18;;;;;;;6.55;2.78;;;-3.20;99.90;;;;;;7256404;32;20717;-76
2021/12/22 04:45:20;;;;;;;4.85;2.37;;;-3.10;99.90;;;;;;7257007;32;20191;-77
2021/12/22 04:49:22;;;;;;;5.53;2.22;;;-3.00;99.90;;;;;;7239509;32;20109;-76
2021/12/22 04:53:27;;;;;;;5.25;2.22;;;-3.00;99.90;;;;;;7241741;32;20286;-76
2021/12/22 04:57:33;;;;;;;8.60;2.90;;;-2.90;99.90;;;;;;7236643;32;20104;-76
2021/12/22 05:01:35;;;;;;;5.50;2.70;;;-2.90;99.90;;;;;;7242756;32;20124;-76
2021/12/22 05:05:37;;;;;;;6.30;2.30;;;-2.90;99.90;;;;;;7243616;32;20226;-76
2021/12/22 05:09:38;;;;;;;5.03;2.50;;;-2.80;99.90;;;;;;7259095;32;20208;-76
2021/12/22 05:13:40;;;;;;;4.68;2.30;;;-2.40;99.90;;;;;;7243102;32;20119;-76
2021/12/22 05:21:47;;;;;;;5.30;2.50;;;-2.60;99.90;;;;;;7256195;32;20250;-76
2021/12/22 05:25:49;;;;;;;3.85;2.35;;;-2.60;99.90;;;;;;7242521;32;20105;-76
2021/12/22 05:29:50;;;;;;;5.75;2.55;;;-2.40;99.90;;;;;;7241971;32;20134;-77
2021/12/22 05:33:52;;;;;;;4.78;2.17;;;-2.50;99.90;;;;;;7237084;32;20129;-76
2021/12/22 05:37:54;;;;;;;6.75;2.17;;;-2.40;99.90;;;;;;7244905;32;20234;-77
2021/12/22 05:41:57;;;;;;;5.15;1.95;;;-2.40;99.90;;;;;;7244534;32;20108;-74
2021/12/22 05:45:59;;;;;;;6.40;3.00;;;-2.30;99.90;;;;;;7251972;32;20277;-75
2021/12/22 05:50:04;;;;;;;4.00;2.33;;;-2.40;99.90;;;;;;7255752;32;20151;-73
2021/12/22 05:54:05;;;;;;;4.45;2.55;;;-2.40;99.90;;;;;;7255067;32;20104;-76
2021/12/22 05:58:08;;;;;;;3.95;2.10;;;-2.50;99.90;;;;;;7254171;32;20105;-76
2021/12/22 06:02:10;;;;;;;4.78;2.05;;;-2.40;99.90;;;;;;7242518;32;20124;-77
2021/12/22 06:06:12;;;;;;;6.47;3.08;;;-2.10;99.90;;;;;;7232355;32;20787;-77
2021/12/22 06:10:14;;;;;;;6.93;3.12;;;-2.00;99.90;;;;;;7242148;32;20117;-77
2021/12/22 06:14:16;;;;;;;6.15;2.47;;;-2.00;99.90;;;;;;7249685;32;20781;-77
2021/12/22 06:18:17;;;;;;;11.02;3.00;;;-2.00;99.90;;;;;;7258887;32;20286;-77
2021/12/22 06:22:19;;;;;;;9.05;3.03;;;-1.90;99.90;;;;;;7263562;32;20158;-77
2021/12/22 06:26:21;;;;;;;12.35;5.18;;;-1.80;99.90;;;;;;7242408;32;20553;-77
2021/12/22 06:30:23;;;;;;;7.75;3.22;;;-1.80;99.90;;;;;;7245203;32;20123;-77
2021/12/22 06:34:25;;;;;;;10.85;3.42;;;-1.70;99.90;;;;;;7238486;32;20191;-74
2021/12/22 06:38:27;;;;;;;5.37;3.00;;;-1.70;99.90;;;;;;7249367;32;20193;-77
2021/12/22 06:42:30;;;;;;;6.05;2.87;;;-1.50;99.90;;;;;;7256020;32;20179;-77
2021/12/22 06:46:32;;;;;;;7.28;2.78;;;-1.50;99.90;;;;;;7257158;32;20126;-76
2021/12/22 06:50:34;;;;;;;5.57;2.58;;;-1.30;99.90;;;;;;7256733;32;20111;-76
2021/12/22 06:54:36;;;;;;;5.80;2.65;;;-1.20;99.90;;;;;;7244867;32;20116;-78
2021/12/22 06:58:38;;;;;;;6.80;2.90;;;-1.10;99.90;;;;;;7249610;32;20255;-76
2021/12/22 07:02:40;;;;;;;5.28;2.60;;;-1.10;99.90;;;;;;7255523;32;20176;-76
2021/12/22 07:06:43;;;;;;;5.12;2.45;;;-1.00;99.90;;;;;;7250453;32;20135;-76
2021/12/22 07:10:45;;;;;;;6.80;2.80;;;-1.00;99.90;;;;;;7236571;32;20175;-74
2021/12/22 07:14:47;;;;;;;7.50;2.42;;;-0.90;99.90;;;;;;7250304;32;20821;-77
2021/12/22 07:18:48;;;;;;;5.60;2.58;;;-0.90;99.90;;;;;;7257028;32;20162;-77
2021/12/22 07:22:50;;;;;;;6.20;2.47;;;-0.90;99.90;;;;;;7253604;32;20746;-77
2021/12/22 07:26:53;;;;;;;5.82;2.58;;;-0.80;99.90;;;;;;7254816;32;20127;-77
2021/12/22 07:30:55;;;;;;;5.60;2.60;;;-0.80;99.90;;;;;;7251423;32;20111;-77
2021/12/22 07:35:35;;;;;;;3.92;2.35;;;-0.80;99.90;;;;;;7239186;32;20147;-77
2021/12/22 07:39:37;;;;;;;4.75;2.50;;;-0.80;99.90;;;;;;7227261;32;20133;-77
2021/12/22 07:43:39;;;;;;;5.62;2.40;;;-0.80;99.90;;;;;;7256017;32;20112;-76
2021/12/22 07:47:41;;;;;;;6.35;2.47;;;-0.90;99.90;;;;;;7243718;32;20113;-76
2021/12/22 07:51:43;;;;;;;6.45;3.45;;;-0.80;99.90;;;;;;7258362;32;20113;-77
2021/12/22 07:55:45;;;;;;;4.22;2.92;;;-0.80;99.90;;;;;;7270015;32;20146;-76
2021/12/22 07:59:46;;;;;;;9.02;3.35;;;-0.80;99.90;;;;;;7244399;32;20136;-76
2021/12/22 08:03:48;;;;;;;5.97;2.97;;;-0.70;99.90;;;;;;7228684;32;20967;-77
2021/12/22 08:07:50;;;;;;;7.28;3.42;;;-0.80;99.90;;;;;;7248538;32;20207;-76
2021/12/22 08:11:54;;;;;;;7.65;3.40;;;-0.80;99.90;;;;;;7255778;32;20109;-77
2021/12/22 08:15:56;;;;;;;6.25;3.28;;;-0.80;99.90;;;;;;7234866;32;20109;-77
2021/12/22 08:19:58;;;;;;;6.45;3.03;;;-0.70;99.90;;;;;;7250418;32;20702;-77
2021/12/22 08:24:00;;;;;;;8.07;3.30;;;-0.60;99.90;;;;;;7255975;32;20121;-77
2021/12/22 08:28:02;;;;;;;7.82;3.03;;;-0.70;99.90;;;;;;7230627;32;20206;-76
2021/12/22 08:32:04;;;;;;;7.50;3.45;;;-0.60;99.90;;;;;;7258599;32;20105;-77
2021/12/22 08:40:27;;;;;;;7.53;3.35;;;-0.50;99.90;;;;;;7245293;32;20113;-77
2021/12/22 08:44:29;;;;;;;7.12;3.70;;;-0.50;99.90;;;;;;7244593;32;20547;-77
2021/12/22 08:48:30;;;;;;;10.15;3.60;;;-0.40;99.90;;;;;;7254954;32;20114;-77
2021/12/22 08:52:32;;;;;;;4.82;3.12;;;-0.40;99.90;;;;;;7257598;32;20774;-76
2021/12/22 08:56:35;;;;;;;8.07;3.65;;;-0.30;99.90;;;;;;7258889;32;20258;-77
2021/12/22 09:00:38;;;;;;;9.45;3.53;;;-0.30;99.90;;;;;;7242171;32;20112;-77
2021/12/22 09:04:40;;;;;;;6.82;3.67;;;-0.20;99.90;;;;;;7243727;32;20832;-77
2021/12/22 09:08:42;;;;;;;9.57;3.87;;;-0.20;99.90;;;;;;7255142;32;20127;-77
2021/12/22 09:12:44;;;;;;;8.80;3.90;;;-0.10;99.90;;;;;;7243522;32;20207;-77
2021/12/22 09:16:45;;;;;;;10.77;3.67;;;0.00;99.90;;;;;;7259716;32;20268;-76
2021/12/22 09:20:47;;;;;;;7.62;4.07;;;0.10;99.90;;;;;;7242411;32;20780;-77
2021/12/22 09:24:49;;;;;;;6.18;3.67;;;0.10;99.90;;;;;;7242601;32;20191;-77
2021/12/22 09:28:52;;;;;;;9.43;4.18;;;0.20;99.90;;;;;;7254930;32;20108;-77
2021/12/22 09:32:54;;;;;;;8.57;4.47;;;0.20;99.90;;;;;;7240641;32;20104;-77
2021/12/22 09:36:56;;;;;;;8.40;4.18;;;0.30;99.90;;;;;;7246846;32;20172;-79
2021/12/22 09:40:59;;;;;;;6.18;3.87;;;0.30;99.90;;;;;;7255023;32;20116;-84
2021/12/22 09:45:02;;;;;;;6.05;3.90;;;0.30;99.90;;;;;;7229179;32;20530;-77
2021/12/22 09:49:19;;;;;;;7.65;4.45;;;0.40;99.90;;;;;;7242694;32;20134;-77
2021/12/22 09:53:27;;;;;;;7.40;4.43;;;0.60;99.90;;;;;;7235240;32;20120;-76
2021/12/22 09:57:30;;;;;;;8.60;4.53;;;0.60;99.90;;;;;;7241818;32;20913;-76
2021/12/22 10:01:31;;;;;;;7.60;3.72;;;0.60;99.90;;;;;;7254978;32;20125;-78
2021/12/22 10:05:38;;;;;;;6.25;4.25;;;0.80;99.90;;;;;;7257689;32;20272;-78
2021/12/22 10:09:45;;;;;;;12.37;5.03;;;0.80;99.90;;;;;;7245253;32;20203;-78
2021/12/22 10:13:47;;;;;;;7.65;4.93;;;0.90;99.90;;;;;;7243427;32;20104;-76
2021/12/22 10:17:51;;;;;;;8.10;4.85;;;1.10;99.90;;;;;;7252318;32;20233;-76
2021/12/22 10:21:57;;;;;;;6.18;4.40;;;1.10;99.90;;;;;;7251673;32;20109;-76
2021/12/22 10:26:00;;;;;;;7.82;4.57;;;1.10;99.90;;;;;;7225196;32;20561;-76
2021/12/22 10:30:41;;;;;;;12.27;5.57;;;1.20;99.90;;;;;;7237067;32;20177;-78
2021/12/22 10:35:02;;;;;;;9.85;5.20;;;1.30;99.90;;;;;;7231651;32;20174;-77
2021/12/22 10:39:04;;;;;;;8.70;4.85;;;1.30;99.90;;;;;;7256396;32;20171;-77
2021/12/22 10:43:09;;;;;;;8.73;5.12;;;1.30;99.90;;;;;;7248954;32;20127;-77
2021/12/22 10:47:32;;;;;;;9.65;4.53;;;1.50;99.90;;;;;;7256312;32;20231;-77
2021/12/22 10:51:40;;;;;;;7.30;4.70;;;1.50;99.90;;;;;;7252471;32;20729;-77
2021/12/22 10:55:45;;;;;;;7.03;5.03;;;1.50;99.90;;;;;;7255136;32;20112;-79
2021/12/22 10:59:53;;;;;;;8.25;4.65;;;1.50;99.90;;;;;;7248931;32;20184;-80
2021/12/22 11:04:02;;;;;;;7.95;4.97;;;1.60;99.90;;;;;;7241339;32;20172;-79
2021/12/22 11:08:20;;;;;;;7.62;4.50;;;1.60;99.90;;;;;;7261072;32;20119;-78
2021/12/22 11:12:35;;;;;;;8.00;4.82;;;1.70;99.90;;;;;;7259302;32;20187;-78
2021/12/22 11:16:51;;;;;;;7.62;4.60;;;1.60;99.90;;;;;;7256706;32;20362;-78
2021/12/22 11:21:15;;;;;;;8.52;4.80;;;1.80;99.90;;;;;;7234279;32;20467;-78
2021/12/22 11:25:18;;;;;;;8.35;5.05;;;1.80;99.90;;;;;;7266237;32;20127;-77
2021/12/22 11:29:21;;;;;;;6.07;4.55;;;1.90;99.90;;;;;;7248964;32;20222;-76
2021/12/22 11:33:25;;;;;;;13.38;4.87;;;1.90;99.90;;;;;;7255232;32;20124;-77
2021/12/22 11:37:28;;;;;;;8.50;3.95;;;2.00;99.90;;;;;;7250352;32;20945;-78
2021/12/22 11:41:31;;;;;;;8.55;4.93;;;2.10;99.90;;;;;;7233974;32;20208;-78
2021/12/22 11:45:34;;;;;;;6.53;4.65;;;2.10;99.90;;;;;;7244876;32;20199;-78
2021/12/22 11:49:54;;;;;;;6.50;4.30;;;2.20;99.90;;;;;;7259327;32;20112;-78
2021/12/22 11:53:58;;;;;;;6.25;4.07;;;2.10;99.90;;;;;;7251223;32;20138;-77
2021/12/22 11:58:20;;;;;;;6.93;4.40;;;2.00;99.90;;;;;;7238261;32;20278;-78
2021/12/22 12:02:32;;;;;;;10.57;4.80;;;2.00;99.90;;;;;;7255697;32;20112;-77
2021/12/22 12:06:50;;;;;;;8.38;4.53;;;2.20;99.90;;;;;;7264708;32;20120;-78
2021/12/22 12:10:54;;;;;;;6.72;4.60;;;2.30;99.90;;;;;;7273008;32;20117;-77
2021/12/22 12:15:08;;;;;;;8.95;4.68;;;2.10;99.90;;;;;;7261345;32;20132;-77
2021/12/22 12:23:50;;;;;;;8.35;4.82;;;2.20;99.90;;;;;;7274143;32;20182;-76
2021/12/22 12:27:53;;;;;;;7.72;4.62;;;2.30;99.90;;;;;;7275862;32;20072;-76
2021/12/22 12:31:56;;;;;;;8.98;5.03;;;2.30;99.90;;;;;;7267092;32;20124;-77
2021/12/22 12:36:04;;;;;;;8.45;4.82;;;2.30;99.90;;;;;;7263947;32;20109;-76
2021/12/22 12:40:06;;;;;;;8.68;4.75;;;2.40;99.90;;;;;;7282809;32;20277;-77
2021/12/22 12:44:10;;;;;;;7.53;4.07;;;2.40;99.90;;;;;;7275060;32;20089;-77
2021/12/22 12:48:30;;;;;;;7.80;4.90;;;2.50;99.90;;;;;;7290983;32;20212;-75
2021/12/22 12:52:33;;;;;;;10.30;4.57;;;2.50;99.90;;;;;;7272094;32;20085;-75
2021/12/22 12:56:40;;;;;;;8.27;4.87;;;2.60;99.90;;;;;;7278922;32;20148;-77
2021/12/22 13:00:45;;;;;;;7.10;4.70;;;2.70;99.90;;;;;;7248975;32;20774;-77
2021/12/22 13:04:48;;;;;;;8.80;4.60;;;2.60;99.90;;;;;;7266809;32;20134;-76
2021/12/22 13:08:50;;;;;;;7.57;5.05;;;2.60;99.90;;;;;;7245693;32;20583;-78
2021/12/22 13:13:13;;;;;;;8.25;4.97;;;2.60;99.90;;;;;;7265076;32;20125;-75
2021/12/22 13:17:15;;;;;;;10.65;5.15;;;2.60;99.90;;;;;;7242803;32;20721;-78
2021/12/22 13:21:25;;;;;;;10.98;4.55;;;2.60;99.90;;;;;;7257412;32;20163;-78
2021/12/22 13:25:33;;;;;;;8.98;5.28;;;2.80;99.90;;;;;;7246889;32;20130;-77
2021/12/22 13:29:36;;;;;;;9.30;4.80;;;2.80;99.90;;;;;;7262794;32;20124;-78
2021/12/22 13:33:44;;;;;;;8.00;4.55;;;2.80;99.90;;;;;;7240003;32;20123;-76
2021/12/22 13:37:50;;;;;;;8.25;4.87;;;2.80;99.90;;;;;;7237834;32;20301;-77
2021/12/22 13:41:54;;;;;;;9.80;4.97;;;2.90;99.90;;;;;;7254255;32;20152;-79
2021/12/22 13:46:10;;;;;;;8.73;4.90;;;2.90;99.90;;;;;;7241338;32;20125;-79
2021/12/22 13:50:12;;;;;;;7.85;5.30;;;2.80;99.90;;;;;;7254438;32;20191;-80
2021/12/22 13:54:23;;;;;;;10.27;5.32;;;2.60;99.90;;;;;;7238755;32;20119;-79
2021/12/22 13:58:42;;;;;;;8.48;4.70;;;2.60;99.90;;;;;;7232387;32;20191;-78
2021/12/22 14:02:44;;;;;;;10.38;4.87;;;2.70;99.90;;;;;;7258576;32;20121;-80
2021/12/22 14:06:52;;;;;;;8.60;5.35;;;2.60;99.90;;;;;;7238412;32;20108;-80
2021/12/22 14:10:53;;;;;;;8.60;5.10;;;2.50;99.90;;;;;;7239451;32;20459;-79
2021/12/22 14:14:59;;;;;;;10.75;5.15;;;2.50;99.90;;;;;;7249051;32;20125;-80
2021/12/22 14:19:01;;;;;;;9.57;5.10;;;2.50;99.90;;;;;;7242196;32;20155;-80
2021/12/22 14:23:03;;;;;;;7.43;5.18;;;2.40;99.90;;;;;;7258146;32;20133;-80
2021/12/22 14:27:09;;;;;;;8.60;5.25;;;2.30;99.90;;;;;;7251569;32;20147;-80
2021/12/22 14:31:10;;;;;;;8.00;4.60;;;2.30;99.90;;;;;;7236571;32;20608;-80
2021/12/22 14:35:14;;;;;;;9.88;4.65;;;2.20;99.90;;;;;;7259714;32;20659;-79
2021/12/22 14:39:16;;;;;;;8.07;5.10;;;2.10;99.90;;;;;;7257727;32;20176;-80
2021/12/22 14:43:18;;;;;;;8.60;4.95;;;1.90;99.90;;;;;;7257667;32;20228;-80
2021/12/22 14:47:22;;;;;;;8.88;5.50;;;1.80;99.90;;;;;;7240540;32;20112;-80
2021/12/22 14:51:24;;;;;;;10.23;5.40;;;1.80;99.90;;;;;;7256162;32;20117;-80
2021/12/22 14:55:45;;;;;;;8.18;5.37;;;1.70;99.90;;;;;;7246702;32;20516;-79
2021/12/22 14:59:46;;;;;;;9.73;6.43;;;1.80;99.90;;;;;;7269476;32;20180;-80
2021/12/22 15:03:50;;;;;;;8.98;5.70;;;1.70;99.90;;;;;;7268453;32;20530;-80
2021/12/22 15:07:52;;;;;;;9.82;5.30;;;1.70;99.90;;;;;;7247113;32;20640;-80
2021/12/22 15:11:53;;;;;;;10.30;5.68;;;1.60;99.90;;;;;;7269551;32;20161;-80
2021/12/22 15:15:55;;;;;;;11.95;5.87;;;1.70;99.90;;;;;;7272968;32;20289;-81
2021/12/22 15:19:57;;;;;;;13.32;6.20;;;1.70;99.90;;;;;;7262763;32;20156;-80
2021/12/22 15:23:59;;;;;;;9.65;5.93;;;1.60;99.90;;;;;;7248920;32;20116;-78
2021/12/22 15:28:01;;;;;;;10.88;5.90;;;1.60;99.90;;;;;;7267376;32;20604;-78
2021/12/22 15:32:03;;;;;;;12.77;6.07;;;1.30;99.90;;;;;;7249977;32;20120;-78
2021/12/22 15:36:05;;;;;;;9.98;5.78;;;1.20;99.90;;;;;;7249920;32;20172;-77
2021/12/22 15:40:08;;;;;;;10.40;6.32;;;1.20;99.90;;;;;;7240790;32;20267;-76
2021/12/22 15:44:10;;;;;;;8.77;6.10;;;1.20;99.90;;;;;;7248977;32;20150;-77
2021/12/22 15:48:12;;;;;;;9.80;5.18;;;1.20;99.90;;;;;;7273166;32;20382;-77
2021/12/22 15:52:15;;;;;;;9.73;6.15;;;1.10;99.90;;;;;;7262757;32;20624;-78
2021/12/22 15:56:16;;;;;;;9.25;5.60;;;1.00;99.90;;;;;;7263720;32;20196;-78
2021/12/22 16:00:25;;;;;;;8.60;5.75;;;0.90;99.90;;;;;;7262512;32;20458;-78
2021/12/22 16:04:27;;;;;;;11.02;6.22;;;0.90;99.90;;;;;;7272685;32;20250;-77
2021/12/22 16:08:46;;;;;;;10.88;6.10;;;0.80;99.90;;;;;;7278701;32;20255;-77
2021/12/22 16:12:48;;;;;;;13.85;6.78;;;0.80;99.90;;;;;;7272261;32;20131;-78
2021/12/22 16:16:51;;;;;;;9.43;5.72;;;0.80;99.90;;;;;;7246980;32;20220;-77
2021/12/22 16:20:57;;;;;;;;;;;0.60;99.90;;;;;;7266990;32;20131;-78
2021/12/22 16:25:16;;;;;;;11.88;5.40;;;0.70;99.90;;;;;;7247910;32;20037;-76
2021/12/22 16:29:18;;;;;;;11.27;5.75;;;0.70;99.90;;;;;;7242134;32;20113;-78
2021/12/22 16:33:20;;;;;;;9.70;4.80;;;0.60;99.90;;;;;;7243686;32;20104;-78
2021/12/22 16:37:22;;;;;;;12.30;6.22;;;0.60;99.90;;;;;;7257363;32;20622;-78
2021/12/22 16:41:27;;;;;;;9.82;5.35;;;0.60;99.90;;;;;;7262082;32;20105;-78
2021/12/22 16:45:29;;;;;;;11.85;6.12;;;0.60;99.90;;;;;;7234430;32;20440;-78
2021/12/22 16:49:31;;;;;;;9.48;5.60;;;0.60;99.90;;;;;;7263125;32;20211;-78
2021/12/22 16:53:33;;;;;;;9.00;5.87;;;0.60;99.90;;;;;;7255408;32;20215;-78
2021/12/22 16:57:35;;;;;;;8.05;5.37;;;0.50;99.90;;;;;;7252857;32;20191;-78
2021/12/22 17:01:37;;;;;;;10.30;5.20;;;0.60;99.90;;;;;;7247631;32;20227;-78
2021/12/22 17:05:39;;;;;;;9.85;6.25;;;0.60;99.90;;;;;;7245447;32;20146;-77
2021/12/22 17:09:46;;;;;;;10.17;5.83;;;0.60;99.90;;;;;;7265054;32;20192;-77
2021/12/22 17:13:48;;;;;;;9.60;5.95;;;0.60;99.90;;;;;;7246023;32;20668;-78
2021/12/22 17:17:49;;;;;;;9.98;5.68;;;0.60;99.90;;;;;;7269473;32;20156;-78
2021/12/22 17:21:53;;;;;;;10.65;5.28;;;0.60;99.90;;;;;;7258293;32;20407;-78
2021/12/22 17:25:57;;;;;;;10.80;6.20;;;0.60;99.90;;;;;;7269271;32;20181;-79
2021/12/22 17:29:59;;;;;;;10.60;5.80;;;0.50;99.90;;;;;;7274173;32;20154;-81
2021/12/22 17:34:01;;;;;;;9.90;6.15;;;0.60;99.90;;;;;;7271445;32;20180;-78
2021/12/22 17:38:03;;;;;;;9.90;5.75;;;0.60;99.90;;;;;;7260336;32;20506;-78
2021/12/22 17:42:05;;;;;;;8.80;5.40;;;0.60;99.90;;;;;;7252691;32;20227;-78
2021/12/22 17:46:07;;;;;;;11.05;6.10;;;0.60;99.90;;;;;;7266660;32;20053;-78
2021/12/22 17:50:11;;;;;;;10.95;6.47;;;0.50;99.90;;;;;;7271093;32;20169;-78
2021/12/22 17:54:13;;;;;;;11.30;6.70;;;0.50;99.90;;;;;;7274397;32;20100;-79
2021/12/22 17:58:15;;;;;;;11.77;7.00;;;0.40;99.90;;;;;;7254937;32;20151;-78
2021/12/22 18:02:18;;;;;;;11.38;7.05;;;0.60;99.90;;;;;;7263967;32;20126;-78
2021/12/22 18:06:24;;;;;;;10.07;6.10;;;0.50;99.90;;;;;;7251712;32;20480;-78
2021/12/22 18:10:26;;;;;;;8.73;5.60;;;0.40;99.90;;;;;;7226503;32;20112;-78
2021/12/22 18:14:28;;;;;;;11.15;6.62;;;0.40;99.90;;;;;;7251991;32;20128;-78
2021/12/22 18:18:30;;;;;;;10.20;6.07;;;0.30;99.90;;;;;;7257217;32;20581;-78
2021/12/22 18:22:31;;;;;;;12.32;6.72;;;0.30;99.90;;;;;;7238267;32;20225;-77
2021/12/22 18:26:35;;;;;;;11.38;6.45;;;0.30;99.90;;;;;;7243842;32;20565;-77
2021/12/22 18:30:40;;;;;;;11.27;6.70;;;0.40;99.90;;;;;;7241534;32;20156;-78
2021/12/22 18:34:42;;;;;;;10.00;6.72;;;0.40;99.90;;;;;;7243460;32;20232;-77
2021/12/22 18:38:44;;;;;;;13.20;7.93;;;0.40;99.90;;;;;;7258492;32;20191;-77
2021/12/22 18:42:46;;;;;;;11.75;6.55;;;0.40;99.90;;;;;;7262388;32;20612;-78
2021/12/22 18:46:57;;;;;;;14.68;7.45;;;0.30;99.90;;;;;;7264084;32;20131;-78
2021/12/22 18:51:01;;;;;;;12.40;7.47;;;0.30;99.90;;;;;;7248415;32;20215;-77
2021/12/22 18:55:03;;;;;;;13.70;7.15;;;0.30;99.90;;;;;;7257146;32;20498;-79
2021/12/22 18:59:05;;;;;;;13.27;7.00;;;0.30;99.90;;;;;;7252822;32;20120;-77
2021/12/22 19:03:07;;;;;;;12.25;7.05;;;0.40;99.90;;;;;;7254543;32;20108;-77
2021/12/22 19:07:09;;;;;;;12.25;7.37;;;0.40;99.90;;;;;;7236929;32;20117;-78
2021/12/22 19:11:11;;;;;;;11.18;6.68;;;0.50;99.90;;;;;;7238488;32;20185;-78
2021/12/22 19:15:15;;;;;;;16.92;7.65;;;0.50;99.90;;;;;;7269941;32;20139;-77
2021/12/22 19:19:17;;;;;;;12.73;7.37;;;0.50;99.90;;;;;;7236862;32;20116;-78
2021/12/22 19:23:20;;;;;;;11.73;7.00;;;0.50;99.90;;;;;;7255569;32;20113;-79
2021/12/22 19:27:25;;;;;;;15.80;8.13;;;0.50;99.90;;;;;;7243312;32;20262;-80
2021/12/22 19:31:27;;;;;;;17.37;7.75;;;0.50;99.90;;;;;;7253128;32;20124;-81
2021/12/22 19:35:29;;;;;;;13.43;8.40;;;0.50;99.90;;;;;;7237326;32;20112;-78
2021/12/22 19:39:31;;;;;;;13.23;8.10;;;0.80;99.90;;;;;;7236819;32;20171;-78
2021/12/22 19:43:32;;;;;;;13.85;8.32;;;0.70;99.90;;;;;;7259168;32;20682;-78
2021/12/22 19:47:35;;;;;;;13.35;7.82;;;0.60;99.90;;;;;;7238849;32;20154;-79
2021/12/22 19:51:37;;;;;;;14.70;8.18;;;0.60;99.90;;;;;;7260984;32;20590;-79
2021/12/22 19:55:41;;;;;;;13.77;7.75;;;0.50;99.90;;;;;;7243769;32;20564;-79
2021/12/22 19:59:43;;;;;;;14.30;8.00;;;0.50;99.90;;;;;;7263811;32;20223;-79
2021/12/22 20:03:47;;;;;;;14.23;8.20;;;0.40;99.90;;;;;;7255629;32;20560;-78
2021/12/22 20:07:54;;;;;;;13.90;8.32;;;0.40;99.90;;;;;;7253146;32;20222;-80
2021/12/22 20:11:57;;;;;;;14.48;9.07;;;0.40;99.90;;;;;;7245248;32;20100;-80
2021/12/22 20:16:00;;;;;;;15.32;8.13;;;0.30;99.90;;;;;;7231249;32;20166;-78
2021/12/22 20:20:05;;;;;;;16.08;8.48;;;0.40;99.90;;;;;;7241059;32;20576;-78
2021/12/22 20:24:07;;;;;;;15.27;8.93;;;0.40;99.90;;;;;;7240768;32;20207;-79
2021/12/22 20:28:12;;;;;;;17.25;8.95;;;0.40;99.90;;;;;;7267610;32;20109;-79
2021/12/22 20:32:14;;;;;;;15.25;8.77;;;0.40;99.90;;;;;;7256112;32;20209;-81
2021/12/22 20:36:16;;;;;;;16.10;9.13;;;0.40;99.90;;;;;;7266234;32;20104;-80
2021/12/22 20:40:22;;;;;;;14.02;8.50;;;0.40;99.90;;;;;;7252365;32;20502;-80
2021/12/22 20:44:25;;;;;;;16.95;9.88;;;0.40;99.90;;;;;;7255685;32;20116;-80
2021/12/22 20:48:31;;;;;;;13.70;8.77;;;0.40;99.90;;;;;;7247921;32;20123;-81
2021/12/22 20:52:34;;;;;;;18.70;9.50;;;0.40;99.90;;;;;;7245083;32;20633;-81
2021/12/22 20:56:36;;;;;;;18.50;8.85;;;0.40;99.90;;;;;;7231062;32;20132;-80
2021/12/22 21:00:42;;;;;;;14.73;9.23;;;0.50;99.90;;;;;;7255240;32;20123;-81
2021/12/22 21:04:45;;;;;;;15.13;9.50;;;0.40;99.90;;;;;;7236739;32;21078;-79
2021/12/22 21:08:49;;;;;;;16.87;9.52;;;0.40;99.90;;;;;;7238326;32;20097;-79
2021/12/22 21:13:01;;;;;;;17.92;9.10;;;0.40;99.90;;;;;;7261898;32;20123;-80
2021/12/22 21:17:03;;;;;;;16.70;9.85;;;0.50;99.90;;;;;;7247307;32;20179;-80
2021/12/22 21:21:06;;;;;;;14.23;8.80;;;0.50;99.90;;;;;;7267336;32;20108;-79
2021/12/22 21:25:18;;;;;;;19.75;10.75;;;0.40;99.90;;;;;;7265424;32;20131;-76
2021/12/22 21:29:20;;;;;;;17.90;9.80;;;0.40;99.90;;;;;;7232251;32;20108;-79
2021/12/22 21:33:22;;;;;;;17.40;9.95;;;0.40;99.90;;;;;;7253511;32;20849;-79
2021/12/22 21:37:25;;;;;;;16.08;9.43;;;0.50;99.90;;;;;;7232688;32;20841;-81
2021/12/22 21:41:27;;;;;;;18.20;9.88;;;0.50;99.90;;;;;;7259580;32;20860;-79